Time;durP1;ratioP1;P1;durP2;ratioP2;P2;SDS_P1;SDS_P2;PMS_P1;PMS_P2;Temp;Humidity;BMP_temperature;BMP_pressure;BME280_temperature;BME280_humidity;BME280_pressure;Samples;Min_cycle;Max_cycle;Signal;HPM_P1;HPM_P2
2022/12/20 00:00:15;;;;;;;17.20;8.93;;;;;;;;;;4887300;29;20040;-82
2022/12/20 00:02:41;;;;;;;14.68;8.63;;;;;;;;;;4886947;29;20508;-82
2022/12/20 00:05:07;;;;;;;17.45;8.05;;;;;;;;;;4902526;29;20052;-81
2022/12/20 00:07:33;;;;;;;16.80;8.23;;;;;;;;;;4902475;29;20123;-81
2022/12/20 00:09:59;;;;;;;18.23;8.40;;;;;;;;;;4887041;29;20076;-82
2022/12/20 00:12:25;;;;;;;16.25;8.60;;;;;;;;;;4886778;29;20044;-81
2022/12/20 00:14:51;;;;;;;14.57;8.50;;;;;;;;;;4886495;29;20040;-81
2022/12/20 00:17:17;;;;;;;16.55;8.05;;;;;;;;;;4902494;29;20040;-81
2022/12/20 00:19:44;;;;;;;13.65;8.15;;;;;;;;;;4902373;29;20047;-81
2022/12/20 00:22:10;;;;;;;17.13;8.15;;;;;;;;;;4902719;29;20044;-81
2022/12/20 00:24:36;;;;;;;20.13;8.85;;;;;;;;;;4886759;29;20036;-81
2022/12/20 00:27:02;;;;;;;15.07;8.27;;;;;;;;;;4902255;29;20036;-81
2022/12/20 00:29:28;;;;;;;13.98;7.70;;;;;;;;;;4900248;29;20067;-81
2022/12/20 00:31:54;;;;;;;15.10;8.57;;;;;;;;;;4869826;29;20104;-81
2022/12/20 00:34:20;;;;;;;13.88;7.47;;;;;;;;;;4902063;29;20496;-82
2022/12/20 00:36:46;;;;;;;13.82;7.50;;;;;;;;;;4887079;29;20123;-81
2022/12/20 00:39:12;;;;;;;18.55;9.00;;;;;;;;;;4886464;29;20076;-81
2022/12/20 00:41:39;;;;;;;17.05;8.55;;;;;;;;;;4885337;29;20136;-81
2022/12/20 00:44:05;;;;;;;17.88;8.07;;;;;;;;;;4902296;29;20091;-82
2022/12/20 00:46:33;;;;;;;17.90;9.70;;;;;;;;;;4902016;29;20051;-81
2022/12/20 00:48:59;;;;;;;18.25;8.63;;;;;;;;;;4886245;29;20127;-81
2022/12/20 00:51:26;;;;;;;14.55;7.95;;;;;;;;;;4901336;29;20043;-80
2022/12/20 00:53:52;;;;;;;17.33;8.20;;;;;;;;;;4886426;29;20036;-81
2022/12/20 00:56:19;;;;;;;16.02;8.13;;;;;;;;;;4901632;29;20043;-81
2022/12/20 00:58:45;;;;;;;13.35;7.90;;;;;;;;;;4901775;29;20123;-81
2022/12/20 01:01:24;;;;;;;12.70;7.68;;;8.90;99.90;;;;;;4885266;29;20553;-81
2022/12/20 01:03:50;;;;;;;15.35;7.93;;;;;;;;;;4901524;29;20087;-82
2022/12/20 01:06:17;;;;;;;15.65;8.05;;;;;;;;;;4885582;29;20439;-81
2022/12/20 01:08:43;;;;;;;17.13;7.85;;;;;;;;;;4870988;29;20441;-82
2022/12/20 01:11:14;;;;;;;15.75;7.88;;;;;;;;;;4901348;29;20488;-81
2022/12/20 01:13:42;;;;;;;19.27;8.18;;;;;;;;;;4900949;29;20044;-82
2022/12/20 01:16:14;;;;;;;18.95;8.27;;;9.00;99.90;;;;;;4886031;29;20441;-81
2022/12/20 01:18:40;;;;;;;14.20;8.13;;;9.00;99.90;;;;;;4885958;29;20489;-81
2022/12/20 01:21:08;;;;;;;16.30;7.82;;;;;;;;;;4885414;29;20040;-81
2022/12/20 01:23:34;;;;;;;24.05;8.13;;;;;;;;;;4901364;29;20044;-82
2022/12/20 01:26:01;;;;;;;16.90;7.68;;;;;;;;;;4901317;29;20437;-81
2022/12/20 01:28:27;;;;;;;20.40;7.93;;;9.00;99.90;;;;;;4901428;29;20392;-81
2022/12/20 01:30:53;;;;;;;19.05;8.07;;;;;;;;;;4885350;29;20048;-81
2022/12/20 01:33:19;;;;;;;16.60;8.52;;;;;;;;;;4885626;29;20039;-81
2022/12/20 01:35:59;;;;;;;13.35;7.60;;;8.90;99.90;;;;;;4900919;29;20040;-81
2022/12/20 01:38:26;;;;;;;16.58;8.07;;;;;;;;;;4901196;29;20047;-81
2022/12/20 01:40:52;;;;;;;12.95;7.43;;;;;;;;;;4885498;29;20036;-82
2022/12/20 01:43:19;;;;;;;18.55;8.70;;;8.90;99.90;;;;;;4885436;29;20123;-81
2022/12/20 01:45:46;;;;;;;32.72;9.18;;;;;;;;;;4900595;29;20055;-81
2022/12/20 01:48:14;;;;;;;16.08;7.85;;;;;;;;;;4900771;29;20449;-81
2022/12/20 01:50:40;;;;;;;12.68;7.60;;;;;;;;;;4897773;29;20047;-81
2022/12/20 01:53:06;;;;;;;19.85;8.23;;;;;;;;;;4900426;29;20374;-81
2022/12/20 01:55:32;;;;;;;21.50;7.93;;;;;;;;;;4885211;29;20087;-81
2022/12/20 01:58:04;;;;;;;13.02;7.63;;;;;;;;;;4900655;29;20077;-81
2022/12/20 02:00:30;;;;;;;14.88;7.45;;;;;;;;;;4884684;29;20059;-81
2022/12/20 02:03:00;;;;;;;15.50;7.78;;;8.90;99.90;;;;;;4884074;29;20056;-81
2022/12/20 02:05:26;;;;;;;17.70;7.32;;;;;;;;;;4900329;29;20416;-81
2022/12/20 02:07:54;;;;;;;16.77;7.93;;;;;;;;;;4900452;29;21493;-82
2022/12/20 02:10:21;;;;;;;17.50;8.07;;;;;;;;;;4900361;29;20075;-81
2022/12/20 02:12:48;;;;;;;14.45;7.93;;;;;;;;;;4900337;29;20080;-82
2022/12/20 02:15:26;;;;;;;15.35;7.78;;;9.00;99.90;;;;;;4900363;29;20079;-81
2022/12/20 02:18:14;;;;;;;14.25;7.18;;;8.80;99.90;;;;;;4884575;29;20071;-81
2022/12/20 02:20:43;;;;;;;15.07;7.72;;;;;;;;;;4900074;29;20036;-82
2022/12/20 02:23:10;;;;;;;16.63;7.82;;;;;;;;;;4884687;29;20071;-82
2022/12/20 02:25:36;;;;;;;14.98;7.90;;;;;;;;;;4900296;29;20403;-82
2022/12/20 02:28:12;;;;;;;13.60;7.47;;;;;;;;;;4899831;29;20052;-82
2022/12/20 02:30:43;;;;;;;12.05;7.13;;;9.10;99.90;;;;;;4884519;29;20036;-82
2022/12/20 02:33:11;;;;;;;17.08;8.25;;;8.80;99.90;;;;;;4899865;29;20115;-82
2022/12/20 02:35:39;;;;;;;13.65;7.55;;;9.10;99.90;;;;;;4899992;29;20512;-83
2022/12/20 02:38:24;;;;;;;17.80;8.75;;;8.90;99.90;;;;;;4899787;29;20040;-82
2022/12/20 02:41:01;;;;;;;20.45;8.10;;;9.10;99.90;;;;;;4899882;29;20067;-81
2022/12/20 02:46:16;;;;;;;17.38;8.00;;;8.90;99.90;;;;;;4899726;29;20040;-81
2022/12/20 02:48:42;;;;;;;13.13;7.63;;;;;;;;;;4883971;29;20051;-81
2022/12/20 02:51:09;;;;;;;16.88;7.75;;;8.90;99.90;;;;;;4899730;29;20496;-80
2022/12/20 02:53:37;;;;;;;19.38;7.88;;;8.90;99.90;;;;;;4899745;29;20143;-80
2022/12/20 02:56:09;;;;;;;13.43;7.53;;;;;;;;;;4881634;29;20091;-80
2022/12/20 02:58:38;;;;;;;19.88;9.00;;;;;;;;;;4899495;29;20131;-79
2022/12/20 03:01:08;;;;;;;15.98;8.10;;;;;;;;;;4898568;29;20083;-79
2022/12/20 03:03:35;;;;;;;19.30;8.85;;;;;;;;;;4899537;29;20408;-80
2022/12/20 03:06:01;;;;;;;14.32;7.32;;;;;;;;;;4883214;29;20072;-80
2022/12/20 03:08:27;;;;;;;15.75;8.00;;;;;;;;;;4899377;29;20040;-80
2022/12/20 03:10:54;;;;;;;18.38;7.80;;;8.90;99.90;;;;;;4868480;29;20033;-80
2022/12/20 03:13:22;;;;;;;15.00;8.20;;;8.60;99.90;;;;;;4899490;29;20099;-80
2022/12/20 03:15:48;;;;;;;15.88;8.38;;;;;;;;;;4882762;29;20044;-80
2022/12/20 03:18:15;;;;;;;14.68;7.65;;;;;;;;;;4899275;29;20044;-80
2022/12/20 03:20:41;;;;;;;13.77;8.20;;;;;;;;;;4899363;29;20066;-80
2022/12/20 03:23:07;;;;;;;18.65;8.55;;;;;;;;;;4883700;29;20040;-80
2022/12/20 03:25:33;;;;;;;18.95;8.32;;;;;;;;;;4899053;29;20044;-80
2022/12/20 03:27:59;;;;;;;16.75;8.07;;;;;;;;;;4899434;29;20044;-79
2022/12/20 03:30:25;;;;;;;15.63;7.78;;;;;;;;;;4883208;29;20048;-80
2022/12/20 03:32:51;;;;;;;16.90;8.30;;;;;;;;;;4899370;29;20115;-80
2022/12/20 03:35:17;;;;;;;16.20;8.13;;;;;;;;;;4896677;29;20043;-80
2022/12/20 03:37:43;;;;;;;16.10;7.75;;;;;;;;;;4883399;29;20496;-80
2022/12/20 03:40:10;;;;;;;15.35;8.40;;;;;;;;;;4883343;29;20503;-80
2022/12/20 03:42:36;;;;;;;14.70;8.32;;;;;;;;;;4899024;29;20048;-80
2022/12/20 03:45:03;;;;;;;17.50;8.23;;;;;;;;;;4898866;29;20130;-79
2022/12/20 03:47:29;;;;;;;16.55;7.65;;;;;;;;;;4898772;29;20197;-79
2022/12/20 03:49:55;;;;;;;19.50;8.90;;;;;;;;;;4898883;29;20539;-79
2022/12/20 03:52:22;;;;;;;17.27;8.20;;;;;;;;;;4867995;29;20179;-79
2022/12/20 03:54:48;;;;;;;17.58;8.48;;;;;;;;;;4899101;29;20032;-78
2022/12/20 03:57:14;;;;;;;20.10;8.00;;;;;;;;;;4883367;29;20044;-78
2022/12/20 03:59:40;;;;;;;14.95;7.90;;;;;;;;;;4896291;29;20042;-78
2022/12/20 04:02:06;;;;;;;15.23;7.60;;;;;;;;;;4898675;29;20401;-78
2022/12/20 04:04:32;;;;;;;13.77;7.82;;;;;;;;;;4898657;29;20044;-78
2022/12/20 04:06:58;;;;;;;17.15;7.80;;;;;;;;;;4898614;29;20046;-78
2022/12/20 04:09:24;;;;;;;15.85;8.18;;;;;;;;;;4898418;29;20055;-79
2022/12/20 04:11:50;;;;;;;13.35;7.70;;;;;;;;;;4880823;29;20044;-77
2022/12/20 04:14:16;;;;;;;16.83;7.28;;;;;;;;;;4898944;29;20064;-77
2022/12/20 04:16:42;;;;;;;17.52;8.02;;;;;;;;;;4883243;29;20067;-77
2022/12/20 04:19:08;;;;;;;11.98;7.28;;;;;;;;;;4867459;29;20044;-77
2022/12/20 04:21:35;;;;;;;13.90;7.50;;;;;;;;;;4898495;29;20051;-77
2022/12/20 04:24:02;;;;;;;22.92;9.75;;;8.80;99.90;;;;;;4898577;29;20389;-77
2022/12/20 04:26:28;;;;;;;15.65;8.18;;;;;;;;;;4898586;29;20499;-77
2022/12/20 04:28:54;;;;;;;15.02;7.63;;;;;;;;;;4901956;29;20047;-77
2022/12/20 04:31:20;;;;;;;16.30;8.20;;;;;;;;;;4901933;29;20115;-77
2022/12/20 04:33:47;;;;;;;14.50;8.02;;;;;;;;;;4902177;29;20043;-77
2022/12/20 04:36:13;;;;;;;18.65;8.30;;;;;;;;;;4886424;29;20063;-77
2022/12/20 04:38:40;;;;;;;16.35;8.27;;;;;;;;;;4901995;29;20048;-77
2022/12/20 04:41:06;;;;;;;13.52;7.90;;;;;;;;;;4887018;29;20064;-77
2022/12/20 04:43:32;;;;;;;14.52;8.13;;;;;;;;;;4901719;29;20039;-77
2022/12/20 04:45:58;;;;;;;18.52;9.00;;;;;;;;;;4901414;29;20047;-77
2022/12/20 04:48:28;;;;;;;18.67;8.60;;;8.70;99.90;;;;;;4901731;29;20044;-77
2022/12/20 04:50:55;;;;;;;18.38;8.27;;;8.80;99.90;;;;;;4901877;29;20076;-77
2022/12/20 04:56:07;;;;;;;18.05;8.50;;;;;;;;;;4901438;29;20052;-77
2022/12/20 04:58:33;;;;;;;16.58;8.55;;;;;;;;;;4901516;29;20048;-77
2022/12/20 05:00:59;;;;;;;17.25;8.02;;;;;;;;;;4901150;29;20076;-77
2022/12/20 05:03:25;;;;;;;16.20;8.35;;;;;;;;;;4900993;29;20412;-77
2022/12/20 05:05:52;;;;;;;16.67;8.95;;;;;;;;;;4901085;29;20050;-77
2022/12/20 05:08:18;;;;;;;17.02;8.35;;;;;;;;;;4901105;29;20119;-77
2022/12/20 05:10:44;;;;;;;15.43;7.90;;;;;;;;;;4885509;29;20096;-77
2022/12/20 05:13:10;;;;;;;14.95;8.38;;;;;;;;;;4901222;29;20548;-76
2022/12/20 05:15:36;;;;;;;14.75;8.05;;;;;;;;;;4901510;29;20178;-77
2022/12/20 05:18:03;;;;;;;15.80;8.10;;;;;;;;;;4885640;29;20072;-77
2022/12/20 05:20:29;;;;;;;16.05;8.70;;;9.00;99.90;;;;;;4900754;29;20039;-77
2022/12/20 05:28:27;;;;;;;17.95;8.20;;;;;;;;;;4901182;29;20051;-77
2022/12/20 05:30:53;;;;;;;15.10;8.52;;;;;;;;;;4900682;29;20048;-77
2022/12/20 05:33:19;;;;;;;13.65;7.93;;;;;;;;;;4884736;29;20127;-77
2022/12/20 05:35:45;;;;;;;15.32;8.07;;;;;;;;;;4882744;29;20559;-77
2022/12/20 05:38:11;;;;;;;17.40;8.38;;;;;;;;;;4899852;29;20043;-77
2022/12/20 05:40:38;;;;;;;23.70;9.95;;;;;;;;;;4884857;29;20044;-77
2022/12/20 05:43:05;;;;;;;12.88;7.57;;;;;;;;;;4885028;29;20047;-77
2022/12/20 05:45:31;;;;;;;16.45;8.15;;;;;;;;;;4869738;29;20135;-77
2022/12/20 05:47:58;;;;;;;17.08;8.13;;;;;;;;;;4900427;29;20032;-77
2022/12/20 05:50:24;;;;;;;15.73;8.98;;;;;;;;;;4900870;29;20472;-77
2022/12/20 05:52:50;;;;;;;21.48;8.00;;;;;;;;;;4884780;29;20044;-77
2022/12/20 05:55:16;;;;;;;15.10;8.40;;;;;;;;;;4900800;29;20036;-77
2022/12/20 05:57:42;;;;;;;15.23;8.35;;;;;;;;;;4899998;29;20052;-77
2022/12/20 06:00:09;;;;;;;17.10;7.88;;;9.00;99.90;;;;;;4900148;29;20076;-76
2022/12/20 06:02:35;;;;;;;18.08;8.70;;;;;;;;;;4900030;29;20090;-77
2022/12/20 06:05:01;;;;;;;13.07;7.60;;;;;;;;;;4900440;29;20102;-76
2022/12/20 06:07:27;;;;;;;15.93;8.40;;;;;;;;;;4900239;29;20473;-77
2022/12/20 06:09:55;;;;;;;19.48;7.85;;;8.90;99.90;;;;;;4884410;29;20396;-77
2022/12/20 06:12:21;;;;;;;13.55;7.57;;;;;;;;;;4884398;29;20036;-76
2022/12/20 06:14:48;;;;;;;14.73;7.28;;;;;;;;;;4900271;29;20059;-76
2022/12/20 06:17:14;;;;;;;16.88;8.25;;;;;;;;;;4884275;29;20046;-76
2022/12/20 06:19:40;;;;;;;16.15;8.60;;;;;;;;;;4899885;29;20126;-74
2022/12/20 06:22:07;;;;;;;17.60;7.97;;;;;;;;;;4884010;29;20496;-76
2022/12/20 06:24:33;;;;;;;13.70;7.25;;;;;;;;;;4881585;29;20067;-76
2022/12/20 06:27:00;;;;;;;13.30;7.55;;;;;;;;;;4885120;29;20040;-76
2022/12/20 06:29:26;;;;;;;17.58;7.50;;;;;;;;;;4900602;29;20458;-76
2022/12/20 06:31:52;;;;;;;13.05;8.13;;;;;;;;;;4900664;29;20051;-76
2022/12/20 06:34:19;;;;;;;16.48;7.75;;;;;;;;;;4900756;29;20032;-76
2022/12/20 06:36:45;;;;;;;15.05;8.38;;;;;;;;;;4885422;29;20050;-77
2022/12/20 06:39:11;;;;;;;17.08;8.20;;;;;;;;;;4885257;29;20040;-76
2022/12/20 06:41:39;;;;;;;15.77;9.23;;;9.20;99.90;;;;;;4900984;29;20393;-72
2022/12/20 06:44:05;;;;;;;18.90;9.55;;;;;;;;;;4900310;29;20055;-76
2022/12/20 06:46:31;;;;;;;18.38;9.63;;;;;;;;;;4885015;29;20048;-76
2022/12/20 06:48:57;;;;;;;14.93;9.35;;;;;;;;;;4900523;29;20044;-76
2022/12/20 06:51:23;;;;;;;16.65;9.48;;;;;;;;;;4900309;29;20051;-76
2022/12/20 06:53:49;;;;;;;20.42;10.02;;;;;;;;;;4899336;29;20051;-76
2022/12/20 06:56:15;;;;;;;17.15;9.20;;;;;;;;;;4900460;29;20044;-76
2022/12/20 06:58:42;;;;;;;16.60;8.68;;;;;;;;;;4884861;29;20052;-76
2022/12/20 07:01:08;;;;;;;17.85;9.82;;;;;;;;;;4900205;29;20464;-76
2022/12/20 07:03:34;;;;;;;19.27;8.95;;;;;;;;;;4900289;29;20048;-76
2022/12/20 07:06:00;;;;;;;19.70;8.82;;;;;;;;;;4884930;29;20040;-76
2022/12/20 07:08:26;;;;;;;18.90;9.38;;;;;;;;;;4884826;29;20485;-76
2022/12/20 07:10:53;;;;;;;19.20;10.00;;;;;;;;;;4884838;29;20488;-76
2022/12/20 07:13:19;;;;;;;21.73;9.77;;;;;;;;;;4900114;29;20127;-76
2022/12/20 07:15:45;;;;;;;19.67;10.50;;;;;;;;;;4884593;29;20039;-76
2022/12/20 07:18:11;;;;;;;19.17;9.80;;;;;;;;;;4900297;29;20044;-76
2022/12/20 07:20:37;;;;;;;17.55;9.23;;;;;;;;;;4900252;29;20047;-76
2022/12/20 07:23:03;;;;;;;15.63;9.02;;;;;;;;;;4884857;29;20036;-76
2022/12/20 07:25:29;;;;;;;20.35;10.52;;;;;;;;;;4900381;29;20047;-76
2022/12/20 07:27:56;;;;;;;21.52;10.02;;;;;;;;;;4884572;29;20102;-76
2022/12/20 07:30:22;;;;;;;19.45;9.73;;;;;;;;;;4900087;29;20051;-76
2022/12/20 07:32:48;;;;;;;28.85;9.55;;;;;;;;;;4884495;29;20044;-76
2022/12/20 07:35:14;;;;;;;17.48;9.30;;;;;;;;;;4884418;29;20071;-75
2022/12/20 07:37:41;;;;;;;21.65;9.73;;;;;;;;;;4884507;29;20036;-75
2022/12/20 07:40:08;;;;;;;19.08;9.60;;;9.20;99.90;;;;;;4899992;29;20048;-76
2022/12/20 07:42:34;;;;;;;18.65;9.52;;;;;;;;;;4900113;29;20103;-76
2022/12/20 07:45:00;;;;;;;16.33;9.18;;;;;;;;;;4900209;29;20122;-76
2022/12/20 07:47:26;;;;;;;19.08;10.45;;;;;;;;;;4899822;29;20118;-76
2022/12/20 07:49:52;;;;;;;17.52;8.85;;;;;;;;;;4884435;29;20060;-75
2022/12/20 07:52:23;;;;;;;15.25;8.73;;;9.20;99.90;;;;;;4884269;29;20044;-75
2022/12/20 07:54:56;;;;;;;19.27;9.60;;;9.40;99.90;;;;;;4884429;29;20123;-75
2022/12/20 07:57:28;;;;;;;18.42;8.75;;;9.10;99.90;;;;;;4884377;29;20473;-75
2022/12/20 07:59:58;;;;;;;24.80;8.95;;;9.30;99.90;;;;;;4899802;29;20040;-76
2022/12/20 08:02:31;;;;;;;14.00;8.57;;;9.00;99.90;;;;;;4900886;29;20075;-76
2022/12/20 08:04:57;;;;;;;22.92;8.57;;;;;;;;;;4902960;29;20099;-75
2022/12/20 08:07:24;;;;;;;19.60;9.25;;;9.10;99.90;;;;;;4902420;29;20036;-76
2022/12/20 08:09:50;;;;;;;18.00;8.65;;;;;;;;;;4902968;29;20047;-75
2022/12/20 08:12:17;;;;;;;17.77;9.35;;;9.10;99.90;;;;;;4903191;29;20044;-75
2022/12/20 08:14:44;;;;;;;17.88;8.48;;;;;;;;;;4888077;29;20104;-75
2022/12/20 08:17:10;;;;;;;16.92;8.18;;;;;;;;;;4903146;29;20051;-75
2022/12/20 08:19:37;;;;;;;16.83;7.65;;;;;;;;;;4903274;29;20167;-75
2022/12/20 08:22:04;;;;;;;15.68;8.30;;;;;;;;;;4887779;29;20048;-75
2022/12/20 08:24:30;;;;;;;18.33;9.13;;;;;;;;;;4903233;29;20469;-76
2022/12/20 08:26:56;;;;;;;13.85;7.68;;;;;;;;;;4902631;29;20087;-76
2022/12/20 08:29:22;;;;;;;13.40;7.90;;;;;;;;;;4903087;29;20040;-76
2022/12/20 08:31:48;;;;;;;14.63;7.82;;;;;;;;;;4886951;29;20040;-76
2022/12/20 08:34:15;;;;;;;13.35;7.57;;;;;;;;;;4859779;29;20485;-75
2022/12/20 08:36:41;;;;;;;17.95;8.02;;;;;;;;;;4896369;29;20040;-76
2022/12/20 08:39:07;;;;;;;16.75;7.53;;;;;;;;;;4886853;29;20051;-75
2022/12/20 08:41:35;;;;;;;17.05;7.53;;;9.30;99.90;;;;;;4886839;29;20047;-75
2022/12/20 08:44:01;;;;;;;15.25;7.55;;;;;;;;;;4902641;29;20051;-75
2022/12/20 08:46:27;;;;;;;23.95;8.10;;;9.40;99.90;;;;;;4902108;29;20493;-75
2022/12/20 08:48:54;;;;;;;13.55;6.97;;;;;;;;;;4901993;29;20071;-69
2022/12/20 08:51:20;;;;;;;17.40;7.60;;;;;;;;;;4901952;29;20064;-75
2022/12/20 08:53:46;;;;;;;15.48;7.78;;;;;;;;;;4886648;29;20091;-75
2022/12/20 08:56:14;;;;;;;15.50;7.47;;;9.50;99.90;;;;;;4871222;29;20044;-74
2022/12/20 08:58:41;;;;;;;17.25;7.43;;;9.60;99.90;;;;;;4902370;29;20042;-75
2022/12/20 09:01:10;;;;;;;15.00;7.50;;;;;;;;;;4886504;29;20048;-75
2022/12/20 09:03:36;;;;;;;14.63;7.35;;;9.70;99.90;;;;;;4901710;29;20103;-74
2022/12/20 09:06:07;;;;;;;15.27;7.88;;;;;;;;;;4901756;29;20048;-75
2022/12/20 09:08:34;;;;;;;13.38;7.10;;;;;;;;;;4886184;29;20032;-75
2022/12/20 09:11:04;;;;;;;13.25;7.00;;;9.60;99.90;;;;;;4895409;29;20444;-74
2022/12/20 09:13:30;;;;;;;14.93;7.25;;;;;;;;;;4902223;29;20067;-74
2022/12/20 09:15:59;;;;;;;14.00;7.25;;;9.60;99.90;;;;;;4886143;29;20091;-74
2022/12/20 09:18:25;;;;;;;12.02;6.95;;;;;;;;;;4886101;29;20079;-74
2022/12/20 09:20:52;;;;;;;13.98;7.70;;;;;;;;;;4885697;29;20040;-74
2022/12/20 09:23:18;;;;;;;13.93;6.78;;;;;;;;;;4886248;29;20055;-74
2022/12/20 09:25:44;;;;;;;10.75;6.78;;;;;;;;;;4901374;29;20048;-74
2022/12/20 09:28:10;;;;;;;15.75;7.13;;;;;;;;;;4901395;29;20036;-75
2022/12/20 09:30:36;;;;;;;12.88;6.88;;;;;;;;;;4901716;29;20044;-75
2022/12/20 09:33:02;;;;;;;16.40;7.13;;;;;;;;;;4901972;29;20437;-75
2022/12/20 09:35:29;;;;;;;21.55;7.18;;;;;;;;;;4885041;29;20044;-75
2022/12/20 09:37:55;;;;;;;16.67;6.93;;;;;;;;;;4884502;29;20040;-75
2022/12/20 09:40:23;;;;;;;14.80;6.45;;;9.70;99.90;;;;;;4885323;29;20047;-75
2022/12/20 09:42:49;;;;;;;15.00;6.90;;;;;;;;;;4900893;29;20040;-75
2022/12/20 09:45:32;;;;;;;19.27;7.38;;;9.70;99.90;;;;;;4886082;29;20044;-75
2022/12/20 09:47:59;;;;;;;14.30;6.32;;;;;;;;;;4901695;29;20118;-75
2022/12/20 09:50:39;;;;;;;13.25;5.88;;;;;;;;;;4901488;29;20123;-74
2022/12/20 09:53:23;;;;;;;15.57;5.78;;;9.70;99.90;;;;;;4901308;29;20047;-74
2022/12/20 09:55:58;;;;;;;16.35;6.68;;;9.70;99.90;;;;;;4901470;29;20051;-74
2022/12/20 09:58:24;;;;;;;12.63;5.63;;;;;;;;;;4901200;29;20052;-74
2022/12/20 10:00:50;;;;;;;11.18;5.63;;;;;;;;;;4901103;29;20051;-74
2022/12/20 10:03:22;;;;;;;16.77;6.45;;;;;;;;;;4900910;29;20060;-75
2022/12/20 10:05:57;;;;;;;14.68;6.47;;;9.80;99.90;;;;;;4882659;29;20512;-75
2022/12/20 10:08:36;;;;;;;12.18;5.60;;;9.90;99.90;;;;;;4894339;29;20055;-75
2022/12/20 10:11:31;;;;;;;10.60;6.10;;;10.10;99.90;;;;;;4901107;29;20047;-75
2022/12/20 10:14:04;;;;;;;12.15;5.47;;;;;;;;;;4885280;29;20086;-74
2022/12/20 10:16:47;;;;;;;12.70;5.68;;;;;;;;;;4900905;29;20099;-75
2022/12/20 10:19:13;;;;;;;13.68;5.85;;;;;;;;;;4900831;29;20040;-75
2022/12/20 10:21:48;;;;;;;13.45;6.00;;;10.10;99.90;;;;;;4885468;29;20048;-78
2022/12/20 10:24:17;;;;;;;12.15;5.75;;;;;;;;;;4884585;29;20043;-74
2022/12/20 10:26:44;;;;;;;16.02;6.97;;;;;;;;;;4900412;29;20517;-73
2022/12/20 10:29:10;;;;;;;8.70;5.85;;;;;;;;;;4885515;29;20043;-74
2022/12/20 10:31:36;;;;;;;9.77;5.47;;;;;;;;;;4900990;29;20043;-74
2022/12/20 10:34:02;;;;;;;13.77;6.20;;;;;;;;;;4900703;29;20044;-74
2022/12/20 10:36:33;;;;;;;12.27;6.10;;;9.90;99.90;;;;;;4901010;29;20055;-74
2022/12/20 10:39:01;;;;;;;12.07;6.00;;;9.80;99.90;;;;;;4885360;29;20040;-73
2022/12/20 10:41:43;;;;;;;12.23;5.50;;;9.90;99.90;;;;;;4900878;29;20075;-74
2022/12/20 10:44:13;;;;;;;12.90;6.85;;;9.80;99.90;;;;;;4885229;29;20040;-74
2022/12/20 10:46:43;;;;;;;8.60;5.53;;;10.00;99.90;;;;;;4900622;29;20055;-74
2022/12/20 10:49:28;;;;;;;13.45;5.53;;;;;;;;;;4900639;29;20048;-74
2022/12/20 10:51:56;;;;;;;13.90;5.82;;;;;;;;;;4900908;29;20433;-74
2022/12/20 10:54:29;;;;;;;11.30;5.78;;;;;;;;;;4900866;29;20048;-74
2022/12/20 10:56:59;;;;;;;12.80;5.90;;;9.90;99.90;;;;;;4900623;29;20054;-74
2022/12/20 10:59:25;;;;;;;16.60;5.70;;;;;;;;;;4900512;29;20080;-74
2022/12/20 11:01:51;;;;;;;11.68;5.63;;;;;;;;;;4900425;29;20126;-74
2022/12/20 11:04:31;;;;;;;10.65;5.50;;;;;;;;;;4899022;29;20048;-74
2022/12/20 11:06:57;;;;;;;9.85;5.82;;;;;;;;;;4884533;29;20425;-74
2022/12/20 11:09:32;;;;;;;8.57;5.72;;;10.00;99.90;;;;;;4871999;29;20032;-74
2022/12/20 11:12:01;;;;;;;11.32;6.15;;;10.00;99.90;;;;;;4884699;29;20036;-76
2022/12/20 11:14:27;;;;;;;13.07;6.03;;;;;;;;;;4884909;29;20048;-73
2022/12/20 11:16:55;;;;;;;10.20;6.05;;;9.90;99.90;;;;;;4900176;29;20082;-73
2022/12/20 11:19:35;;;;;;;14.43;7.05;;;10.10;99.90;;;;;;4884594;29;20083;-73
2022/12/20 11:22:29;;;;;;;11.32;5.97;;;9.90;99.90;;;;;;4884461;29;20390;-73
2022/12/20 11:25:11;;;;;;;12.07;6.40;;;;;;;;;;4884788;29;20047;-73
2022/12/20 11:28:07;;;;;;;11.77;6.63;;;10.10;99.90;;;;;;4884675;29;20092;-75
2022/12/20 11:30:48;;;;;;;15.98;8.00;;;;;;;;;;4899683;29;20568;-76
2022/12/20 11:33:26;;;;;;;16.35;6.50;;;;;;;;;;4883144;29;20040;-75
2022/12/20 11:36:05;;;;;;;13.10;6.95;;;9.90;99.90;;;;;;4883286;29;20441;-75
2022/12/20 11:38:31;;;;;;;14.93;7.55;;;;;;;;;;4902359;29;20047;-75
2022/12/20 11:41:18;;;;;;;19.15;7.53;;;;;;;;;;4902622;29;20111;-75
2022/12/20 11:43:47;;;;;;;12.63;7.07;;;;;;;;;;4904052;29;20139;-75
2022/12/20 11:46:16;;;;;;;13.80;7.35;;;;;;;;;;4903732;29;20040;-72
2022/12/20 11:48:48;;;;;;;14.90;7.28;;;;;;;;;;4904141;29;20448;-75
2022/12/20 11:51:21;;;;;;;12.55;7.78;;;;;;;;;;4888382;29;20047;-75
2022/12/20 11:54:00;;;;;;;19.15;8.07;;;9.90;99.90;;;;;;4904015;29;20130;-75
2022/12/20 11:56:42;;;;;;;16.88;7.50;;;10.00;99.90;;;;;;4903952;29;20497;-75
2022/12/20 11:59:12;;;;;;;17.15;7.90;;;;;;;;;;4904071;29;20055;-75
2022/12/20 12:01:50;;;;;;;17.05;7.82;;;;;;;;;;4903730;29;20063;-75
2022/12/20 12:04:19;;;;;;;13.00;7.88;;;;;;;;;;4903916;29;20135;-75
2022/12/20 12:06:52;;;;;;;12.45;8.38;;;9.70;99.90;;;;;;4888089;29;20040;-75
2022/12/20 12:09:18;;;;;;;20.80;8.45;;;;;;;;;;4903567;29;20036;-75
2022/12/20 12:11:51;;;;;;;17.38;9.00;;;9.70;99.90;;;;;;4903563;29;20051;-75
2022/12/20 12:14:40;;;;;;;18.90;8.70;;;10.00;99.90;;;;;;4903554;29;20035;-75
2022/12/20 12:17:13;;;;;;;17.15;8.88;;;;;;;;;;4888028;29;20520;-75
2022/12/20 12:19:42;;;;;;;17.42;9.70;;;9.70;99.90;;;;;;4888026;29;20446;-75
2022/12/20 12:22:14;;;;;;;16.13;8.98;;;;;;;;;;4903364;29;20044;-75
2022/12/20 12:24:50;;;;;;;16.42;9.57;;;9.70;99.90;;;;;;4903334;29;20397;-75
2022/12/20 12:27:27;;;;;;;21.10;11.75;;;;;;;;;;4903211;29;20496;-75
2022/12/20 12:29:55;;;;;;;17.05;9.75;;;9.70;99.90;;;;;;4903221;29;20047;-76
2022/12/20 12:32:29;;;;;;;24.00;10.65;;;9.80;99.90;;;;;;4902148;29;20120;-77
2022/12/20 12:35:43;;;;;;;19.63;10.13;;;9.60;99.90;;;;;;4903031;29;20040;-76
2022/12/20 12:38:18;;;;;;;17.58;10.68;;;;;;;;;;4890992;29;20052;-76
2022/12/20 12:41:15;;;;;;;17.02;10.10;;;9.70;99.90;;;;;;4887978;29;20082;-76
2022/12/20 12:43:41;;;;;;;14.68;10.18;;;;;;;;;;4903118;29;20082;-77
2022/12/20 12:46:29;;;;;;;22.63;10.15;;;9.80;99.90;;;;;;4903422;29;20157;-77
2022/12/20 12:48:58;;;;;;;19.50;11.57;;;;;;;;;;4886763;29;20078;-77
2022/12/20 12:51:54;;;;;;;15.98;10.50;;;;;;;;;;4903479;29;20136;-77
2022/12/20 12:54:35;;;;;;;22.15;11.65;;;;;;;;;;4876114;29;20155;-77
2022/12/20 12:57:15;;;;;;;15.57;9.77;;;;;;;;;;4887479;29;20052;-77
2022/12/20 12:59:49;;;;;;;21.83;10.50;;;;;;;;;;4888569;29;20079;-77
2022/12/20 13:02:21;;;;;;;19.08;10.95;;;;;;;;;;4902201;29;20138;-77
2022/12/20 13:05:05;;;;;;;;;;;9.60;99.90;;;;;;4887950;29;20052;-77
2022/12/20 13:07:32;;;;;;;19.95;10.80;;;;;;;;;;4902405;29;19970;-78
2022/12/20 13:09:59;;;;;;;20.05;11.85;;;;;;;;;;4903310;29;20040;-77
2022/12/20 13:12:37;;;;;;;20.83;11.68;;;;;;;;;;4887010;29;20051;-77
2022/12/20 13:15:22;;;;;;;20.00;11.13;;;;;;;;;;4902511;29;20040;-78
2022/12/20 13:17:48;;;;;;;16.73;11.02;;;;;;;;;;4902290;29;20051;-77
2022/12/20 13:20:29;;;;;;;20.92;12.27;;;9.70;99.90;;;;;;4886964;29;20433;-77
2022/12/20 13:23:07;;;;;;;20.42;11.95;;;;;;;;;;4886783;29;20036;-76
2022/12/20 13:25:35;;;;;;;17.77;11.95;;;;;;;;;;4902221;29;20048;-76
2022/12/20 13:28:23;;;;;;;17.10;11.88;;;9.80;99.90;;;;;;4886994;29;20040;-76
2022/12/20 13:31:03;;;;;;;21.73;12.77;;;;;;;;;;4902316;29;20036;-77
2022/12/20 13:33:38;;;;;;;21.92;13.02;;;;;;;;;;4902273;29;20507;-77
2022/12/20 13:36:25;;;;;;;19.35;12.90;;;;;;;;;;4902365;29;20048;-77
2022/12/20 13:38:58;;;;;;;20.05;12.13;;;9.70;99.90;;;;;;4902286;29;20127;-76
2022/12/20 13:41:25;;;;;;;17.50;13.20;;;;;;;;;;4902444;29;20075;-77
2022/12/20 13:43:51;;;;;;;21.95;12.50;;;;;;;;;;4901982;29;20055;-77
2022/12/20 13:46:40;;;;;;;30.27;14.82;;;9.50;99.90;;;;;;4902391;29;20040;-77
2022/12/20 13:49:11;;;;;;;21.92;14.98;;;;;;;;;;4903005;29;20036;-77
2022/12/20 13:51:37;;;;;;;25.45;14.00;;;;;;;;;;4901666;29;20036;-77
2022/12/20 13:54:06;;;;;;;20.60;13.80;;;;;;;;;;4900682;29;20044;-78
2022/12/20 13:56:46;;;;;;;22.20;14.13;;;9.40;99.90;;;;;;4900568;29;20077;-77
2022/12/20 13:59:26;;;;;;;24.90;13.60;;;9.70;99.90;;;;;;4883651;29;20050;-78
2022/12/20 14:01:57;;;;;;;23.95;14.10;;;;;;;;;;4897638;29;20066;-76
2022/12/20 14:04:25;;;;;;;25.48;14.93;;;;;;;;;;4898550;29;20608;-77
2022/12/20 14:07:01;;;;;;;25.05;15.15;;;;;;;;;;4884485;29;20048;-75
2022/12/20 14:09:31;;;;;;;28.05;15.75;;;;;;;;;;4900178;29;20036;-76
2022/12/20 14:12:11;;;;;;;24.92;15.77;;;;;;;;;;4900482;29;20481;-76
2022/12/20 14:14:44;;;;;;;30.13;16.33;;;;;;;;;;4885071;29;20544;-76
2022/12/20 14:17:30;;;;;;;33.40;16.17;;;;;;;;;;4900126;29;20047;-76
2022/12/20 14:20:14;;;;;;;28.70;16.95;;;9.60;99.90;;;;;;4884900;29;20036;-75
2022/12/20 14:22:42;;;;;;;28.90;16.42;;;9.80;99.90;;;;;;4900552;29;20480;-75
2022/12/20 14:25:08;;;;;;;32.72;17.23;;;9.70;99.90;;;;;;4900318;29;20122;-78